Lostock Dam Site, Australia

6:45 PM AEDT on December 09, 2016 (GMT +1100)
Mount Rivers | | Change Station

Elev 427 ft 32.36 °S, 151.50 °E | Updated 26 seconds ago

Clear
Clear
73.9 °F
Feels Like 77 °F
N
8.7
Wind Variable Wind from ESE
Gusts 12.3 mph

Today
High -- | Low -- °F
--% Chance of Precip.
Yesterday
High -- | Low -- °F
Precip. -- in
Pressure 29.89 in
Visibility 6.2 miles
Clouds
Heat Index 77 °F
Dew Point 56 °F
Humidity 53%
Rainfall 0.00 in
Snow Depth Not available.
5:40 AM 7:53 PM
Waxing Gibbous, 71% visible
METAR YWLM 090730Z AUTO 13015KT 9999 // NCD 23/12 Q1012
Pressure 29.89 in
Visibility 6.2 miles
Clouds
Heat Index 77 °F
Dew Point 56 °F
Humidity 53%
Rainfall 0.00 in
Snow Depth Not available.
5:40 AM 7:53 PM
Waxing Gibbous, 71% visible
METAR YWLM 090730Z AUTO 13015KT 9999 // NCD 23/12 Q1012

10-Day Weather Forecast

×

Almanac

Astronomy

Dec. 09, 2016 Rise Set
Actual Time
Civil Twilight
Nautical Twilight
Astronomical Twilight
Moon
Length of Visible Light
Length of Day
Tomorrow will be .
, % of the Moon is Illuminated

Today's Extremes

Country Highs Country Lows

Community

WunderPhotos

Upload Photos

1,956,374 photos uploaded!

WunderBlog® & News

Nearby

Air Quality

  Air Quality AQ Index Pollutant
Not available.

Snow Depth

Station Depth Elevation

Earthquake Activity

City Distance Mag. Time & Date
Minimum magnitude displayed is 2.5.

Coastal Water Temperatures

Place Temperature

Stations

Nearby Weather Stations

Station Location Temp. Windchill Dew Point Humidity Wind Precip. Elev Updated Type